sensor_id;sensor_type;location;lat;lon;timestamp;temperature;humidity
12156;DHT22;6141;49.092;8.516;2023-08-21T00:01:19;25.20;46.00
12156;DHT22;6141;49.092;8.516;2023-08-21T00:03:47;25.00;46.20
12156;DHT22;6141;49.092;8.516;2023-08-21T00:06:17;24.90;46.40
12156;DHT22;6141;49.092;8.516;2023-08-21T00:08:45;25.10;46.20
12156;DHT22;6141;49.092;8.516;2023-08-21T00:11:13;25.40;44.20
12156;DHT22;6141;49.092;8.516;2023-08-21T00:13:41;25.50;43.50
12156;DHT22;6141;49.092;8.516;2023-08-21T00:16:11;25.30;44.40
12156;DHT22;6141;49.092;8.516;2023-08-21T00:18:39;25.30;44.20
12156;DHT22;6141;49.092;8.516;2023-08-21T00:21:08;25.70;42.70
12156;DHT22;6141;49.092;8.516;2023-08-21T00:23:37;25.90;41.40
12156;DHT22;6141;49.092;8.516;2023-08-21T00:26:05;26.00;41.10
12156;DHT22;6141;49.092;8.516;2023-08-21T00:28:34;25.90;41.40
12156;DHT22;6141;49.092;8.516;2023-08-21T00:31:02;25.30;43.50
12156;DHT22;6141;49.092;8.516;2023-08-21T00:33:31;25.30;43.50
12156;DHT22;6141;49.092;8.516;2023-08-21T00:35:59;24.90;46.90
12156;DHT22;6141;49.092;8.516;2023-08-21T00:38:29;24.20;49.50
12156;DHT22;6141;49.092;8.516;2023-08-21T00:40:59;24.20;51.00
12156;DHT22;6141;49.092;8.516;2023-08-21T00:43:27;24.50;48.70
12156;DHT22;6141;49.092;8.516;2023-08-21T00:45:55;24.90;47.00
12156;DHT22;6141;49.092;8.516;2023-08-21T00:48:25;24.90;47.00
12156;DHT22;6141;49.092;8.516;2023-08-21T00:50:53;25.10;46.00
12156;DHT22;6141;49.092;8.516;2023-08-21T00:53:22;25.20;44.90
12156;DHT22;6141;49.092;8.516;2023-08-21T00:55:51;25.40;44.20
12156;DHT22;6141;49.092;8.516;2023-08-21T00:58:21;25.60;42.30
12156;DHT22;6141;49.092;8.516;2023-08-21T01:00:49;25.90;41.40
12156;DHT22;6141;49.092;8.516;2023-08-21T01:03:19;26.00;40.70
12156;DHT22;6141;49.092;8.516;2023-08-21T01:05:49;25.20;42.80
12156;DHT22;6141;49.092;8.516;2023-08-21T01:08:23;24.70;45.10
12156;DHT22;6141;49.092;8.516;2023-08-21T01:10:56;24.40;46.60
12156;DHT22;6141;49.092;8.516;2023-08-21T01:13:39;24.70;46.90
12156;DHT22;6141;49.092;8.516;2023-08-21T01:16:10;25.20;43.60
12156;DHT22;6141;49.092;8.516;2023-08-21T01:18:40;25.50;42.70
12156;DHT22;6141;49.092;8.516;2023-08-21T01:21:10;25.50;42.30
12156;DHT22;6141;49.092;8.516;2023-08-21T01:23:41;25.50;41.20
12156;DHT22;6141;49.092;8.516;2023-08-21T01:26:10;25.50;41.20
12156;DHT22;6141;49.092;8.516;2023-08-21T01:28:39;25.70;41.30
12156;DHT22;6141;49.092;8.516;2023-08-21T01:31:09;25.50;41.10
12156;DHT22;6141;49.092;8.516;2023-08-21T01:33:44;24.70;44.80
12156;DHT22;6141;49.092;8.516;2023-08-21T01:36:14;24.60;44.80
12156;DHT22;6141;49.092;8.516;2023-08-21T01:38:45;24.70;45.30
12156;DHT22;6141;49.092;8.516;2023-08-21T01:41:13;24.40;45.30
12156;DHT22;6141;49.092;8.516;2023-08-21T01:43:41;24.20;47.40
12156;DHT22;6141;49.092;8.516;2023-08-21T01:46:10;24.20;47.80
12156;DHT22;6141;49.092;8.516;2023-08-21T01:48:38;24.40;47.30
12156;DHT22;6141;49.092;8.516;2023-08-21T01:51:06;24.50;46.80
12156;DHT22;6141;49.092;8.516;2023-08-21T01:53:34;24.50;46.70
12156;DHT22;6141;49.092;8.516;2023-08-21T01:56:05;24.70;45.90
12156;DHT22;6141;49.092;8.516;2023-08-21T01:58:33;24.80;45.50
12156;DHT22;6141;49.092;8.516;2023-08-21T02:01:01;25.00;44.20
12156;DHT22;6141;49.092;8.516;2023-08-21T02:03:30;25.00;44.20
12156;DHT22;6141;49.092;8.516;2023-08-21T02:05:58;25.10;44.00
12156;DHT22;6141;49.092;8.516;2023-08-21T02:08:31;25.00;43.20
12156;DHT22;6141;49.092;8.516;2023-08-21T02:11:00;25.00;42.80
12156;DHT22;6141;49.092;8.516;2023-08-21T02:13:30;25.00;41.90
12156;DHT22;6141;49.092;8.516;2023-08-21T02:16:00;24.70;43.60
12156;DHT22;6141;49.092;8.516;2023-08-21T02:18:28;24.70;44.30
12156;DHT22;6141;49.092;8.516;2023-08-21T02:20:57;25.00;42.70
12156;DHT22;6141;49.092;8.516;2023-08-21T02:23:25;25.20;42.00
12156;DHT22;6141;49.092;8.516;2023-08-21T02:25:53;24.90;42.60
12156;DHT22;6141;49.092;8.516;2023-08-21T02:28:22;24.50;43.70
12156;DHT22;6141;49.092;8.516;2023-08-21T02:30:52;24.20;46.40
12156;DHT22;6141;49.092;8.516;2023-08-21T02:33:20;24.40;45.10
12156;DHT22;6141;49.092;8.516;2023-08-21T02:35:48;24.50;44.60
12156;DHT22;6141;49.092;8.516;2023-08-21T02:38:16;24.50;45.00
12156;DHT22;6141;49.092;8.516;2023-08-21T02:40:44;24.40;46.20
12156;DHT22;6141;49.092;8.516;2023-08-21T02:43:12;24.30;45.70
12156;DHT22;6141;49.092;8.516;2023-08-21T02:45:40;24.30;45.70
12156;DHT22;6141;49.092;8.516;2023-08-21T02:48:10;24.50;44.30
12156;DHT22;6141;49.092;8.516;2023-08-21T02:50:38;24.50;43.70
12156;DHT22;6141;49.092;8.516;2023-08-21T02:53:06;24.40;44.40
12156;DHT22;6141;49.092;8.516;2023-08-21T02:55:34;24.20;44.70
12156;DHT22;6141;49.092;8.516;2023-08-21T02:58:03;24.00;45.50
12156;DHT22;6141;49.092;8.516;2023-08-21T03:00:31;23.90;46.60
12156;DHT22;6141;49.092;8.516;2023-08-21T03:02:59;24.10;46.30
12156;DHT22;6141;49.092;8.516;2023-08-21T03:05:29;24.10;46.00
12156;DHT22;6141;49.092;8.516;2023-08-21T03:07:57;24.10;46.30
12156;DHT22;6141;49.092;8.516;2023-08-21T03:10:25;24.20;45.80
12156;DHT22;6141;49.092;8.516;2023-08-21T03:12:55;24.30;44.40
12156;DHT22;6141;49.092;8.516;2023-08-21T03:15:23;24.50;43.40
12156;DHT22;6141;49.092;8.516;2023-08-21T03:17:51;24.70;41.90
12156;DHT22;6141;49.092;8.516;2023-08-21T03:20:19;24.70;41.70
12156;DHT22;6141;49.092;8.516;2023-08-21T03:22:49;24.30;43.40
12156;DHT22;6141;49.092;8.516;2023-08-21T03:25:17;23.80;46.00
12156;DHT22;6141;49.092;8.516;2023-08-21T03:27:45;23.40;46.70
12156;DHT22;6141;49.092;8.516;2023-08-21T03:30:16;23.30;48.30
12156;DHT22;6141;49.092;8.516;2023-08-21T03:32:44;23.30;48.60
12156;DHT22;6141;49.092;8.516;2023-08-21T03:35:13;23.50;48.00
12156;DHT22;6141;49.092;8.516;2023-08-21T03:37:42;23.30;48.50
12156;DHT22;6141;49.092;8.516;2023-08-21T03:40:14;23.50;48.70
12156;DHT22;6141;49.092;8.516;2023-08-21T03:42:42;23.20;49.40
12156;DHT22;6141;49.092;8.516;2023-08-21T03:45:11;23.30;48.70
12156;DHT22;6141;49.092;8.516;2023-08-21T03:47:39;23.50;47.20
12156;DHT22;6141;49.092;8.516;2023-08-21T03:50:15;23.90;46.10
12156;DHT22;6141;49.092;8.516;2023-08-21T03:52:43;24.30;43.70
12156;DHT22;6141;49.092;8.516;2023-08-21T03:55:11;24.70;42.20
12156;DHT22;6141;49.092;8.516;2023-08-21T03:57:40;24.50;42.40
12156;DHT22;6141;49.092;8.516;2023-08-21T04:00:09;23.60;45.80
12156;DHT22;6141;49.092;8.516;2023-08-21T04:02:41;23.10;47.90
12156;DHT22;6141;49.092;8.516;2023-08-21T04:05:10;23.30;47.30
12156;DHT22;6141;49.092;8.516;2023-08-21T04:07:38;23.50;46.20
12156;DHT22;6141;49.092;8.516;2023-08-21T04:10:07;23.50;45.70
12156;DHT22;6141;49.092;8.516;2023-08-21T04:12:35;23.60;46.00
12156;DHT22;6141;49.092;8.516;2023-08-21T04:15:06;23.80;45.50
12156;DHT22;6141;49.092;8.516;2023-08-21T04:17:34;23.70;45.90
12156;DHT22;6141;49.092;8.516;2023-08-21T04:20:05;23.70;45.90
12156;DHT22;6141;49.092;8.516;2023-08-21T04:22:33;23.70;45.90
12156;DHT22;6141;49.092;8.516;2023-08-21T04:25:03;23.80;45.90
12156;DHT22;6141;49.092;8.516;2023-08-21T04:27:31;23.40;45.60
12156;DHT22;6141;49.092;8.516;2023-08-21T04:29:59;23.10;48.00
12156;DHT22;6141;49.092;8.516;2023-08-21T04:32:30;23.30;47.70
12156;DHT22;6141;49.092;8.516;2023-08-21T04:34:58;23.80;46.00
12156;DHT22;6141;49.092;8.516;2023-08-21T04:37:26;23.80;46.00
12156;DHT22;6141;49.092;8.516;2023-08-21T04:39:55;23.80;45.70
12156;DHT22;6141;49.092;8.516;2023-08-21T04:42:23;23.80;45.10
12156;DHT22;6141;49.092;8.516;2023-08-21T04:44:51;24.00;43.90
12156;DHT22;6141;49.092;8.516;2023-08-21T04:47:20;23.90;44.20
12156;DHT22;6141;49.092;8.516;2023-08-21T04:49:54;23.60;45.70
12156;DHT22;6141;49.092;8.516;2023-08-21T04:52:24;23.70;45.20
12156;DHT22;6141;49.092;8.516;2023-08-21T04:54:53;23.80;45.10
12156;DHT22;6141;49.092;8.516;2023-08-21T04:57:21;23.90;44.40
12156;DHT22;6141;49.092;8.516;2023-08-21T04:59:50;23.70;44.80
12156;DHT22;6141;49.092;8.516;2023-08-21T05:02:20;23.80;45.20
12156;DHT22;6141;49.092;8.516;2023-08-21T05:04:50;23.60;45.80
12156;DHT22;6141;49.092;8.516;2023-08-21T05:07:20;23.40;47.30
12156;DHT22;6141;49.092;8.516;2023-08-21T05:09:48;23.50;47.30
12156;DHT22;6141;49.092;8.516;2023-08-21T05:12:19;23.80;46.00
12156;DHT22;6141;49.092;8.516;2023-08-21T05:14:48;24.00;46.20
12156;DHT22;6141;49.092;8.516;2023-08-21T05:17:17;23.80;46.90
12156;DHT22;6141;49.092;8.516;2023-08-21T05:19:46;23.80;46.80
12156;DHT22;6141;49.092;8.516;2023-08-21T05:22:14;23.90;46.10
12156;DHT22;6141;49.092;8.516;2023-08-21T05:24:43;24.00;46.20
12156;DHT22;6141;49.092;8.516;2023-08-21T05:27:11;24.10;45.90
12156;DHT22;6141;49.092;8.516;2023-08-21T05:29:41;24.30;45.90
12156;DHT22;6141;49.092;8.516;2023-08-21T05:32:09;24.30;46.60
12156;DHT22;6141;49.092;8.516;2023-08-21T05:34:37;23.90;49.10
12156;DHT22;6141;49.092;8.516;2023-08-21T05:37:06;23.40;52.00
12156;DHT22;6141;49.092;8.516;2023-08-21T05:39:34;23.50;52.10
12156;DHT22;6141;49.092;8.516;2023-08-21T05:42:05;23.90;50.90
12156;DHT22;6141;49.092;8.516;2023-08-21T05:44:33;24.20;49.20
12156;DHT22;6141;49.092;8.516;2023-08-21T05:47:01;24.40;49.10
12156;DHT22;6141;49.092;8.516;2023-08-21T05:49:30;24.30;49.70
12156;DHT22;6141;49.092;8.516;2023-08-21T05:51:58;24.20;51.00
12156;DHT22;6141;49.092;8.516;2023-08-21T05:54:26;24.40;51.70
12156;DHT22;6141;49.092;8.516;2023-08-21T05:56:55;24.10;52.70
12156;DHT22;6141;49.092;8.516;2023-08-21T05:59:31;24.10;54.00
12156;DHT22;6141;49.092;8.516;2023-08-21T06:02:01;24.10;54.70
12156;DHT22;6141;49.092;8.516;2023-08-21T06:04:31;24.00;54.60
12156;DHT22;6141;49.092;8.516;2023-08-21T06:07:01;24.30;54.30
12156;DHT22;6141;49.092;8.516;2023-08-21T06:09:30;24.10;54.70
12156;DHT22;6141;49.092;8.516;2023-08-21T06:11:58;24.10;53.60
12156;DHT22;6141;49.092;8.516;2023-08-21T06:14:30;24.50;53.10
12156;DHT22;6141;49.092;8.516;2023-08-21T06:17:01;24.70;52.20
12156;DHT22;6141;49.092;8.516;2023-08-21T06:19:30;24.90;49.20
12156;DHT22;6141;49.092;8.516;2023-08-21T06:21:58;25.20;48.90
12156;DHT22;6141;49.092;8.516;2023-08-21T06:24:26;25.30;48.80
12156;DHT22;6141;49.092;8.516;2023-08-21T06:27:00;25.50;47.60
12156;DHT22;6141;49.092;8.516;2023-08-21T06:29:31;25.60;45.60
12156;DHT22;6141;49.092;8.516;2023-08-21T06:32:00;25.70;46.40
12156;DHT22;6141;49.092;8.516;2023-08-21T06:34:29;25.70;45.50
12156;DHT22;6141;49.092;8.516;2023-08-21T06:36:57;25.70;46.80
12156;DHT22;6141;49.092;8.516;2023-08-21T06:39:26;25.70;48.30
12156;DHT22;6141;49.092;8.516;2023-08-21T06:41:54;25.80;46.80
12156;DHT22;6141;49.092;8.516;2023-08-21T06:44:32;25.80;46.10
12156;DHT22;6141;49.092;8.516;2023-08-21T06:47:01;26.10;44.70
12156;DHT22;6141;49.092;8.516;2023-08-21T06:49:30;25.90;46.00
12156;DHT22;6141;49.092;8.516;2023-08-21T06:51:59;25.90;46.90
12156;DHT22;6141;49.092;8.516;2023-08-21T06:54:29;25.70;48.20
12156;DHT22;6141;49.092;8.516;2023-08-21T06:56:57;25.50;50.00
12156;DHT22;6141;49.092;8.516;2023-08-21T06:59:25;25.20;50.50
12156;DHT22;6141;49.092;8.516;2023-08-21T07:01:55;25.30;49.00
12156;DHT22;6141;49.092;8.516;2023-08-21T07:04:23;25.50;47.60
12156;DHT22;6141;49.092;8.516;2023-08-21T07:06:51;25.80;46.20
12156;DHT22;6141;49.092;8.516;2023-08-21T07:09:19;26.10;45.80
12156;DHT22;6141;49.092;8.516;2023-08-21T07:11:47;26.30;45.10
12156;DHT22;6141;49.092;8.516;2023-08-21T07:14:15;26.50;43.60
12156;DHT22;6141;49.092;8.516;2023-08-21T07:16:43;26.70;43.30
12156;DHT22;6141;49.092;8.516;2023-08-21T07:19:13;27.00;41.30
12156;DHT22;6141;49.092;8.516;2023-08-21T07:21:41;27.30;39.70
12156;DHT22;6141;49.092;8.516;2023-08-21T07:24:09;27.40;38.60
12156;DHT22;6141;49.092;8.516;2023-08-21T07:26:37;27.70;37.50
12156;DHT22;6141;49.092;8.516;2023-08-21T07:29:05;28.00;36.40
12156;DHT22;6141;49.092;8.516;2023-08-21T07:31:34;28.10;36.50
12156;DHT22;6141;49.092;8.516;2023-08-21T07:34:02;28.30;35.30
12156;DHT22;6141;49.092;8.516;2023-08-21T07:36:33;28.40;33.80
12156;DHT22;6141;49.092;8.516;2023-08-21T07:39:01;28.50;32.50
12156;DHT22;6141;49.092;8.516;2023-08-21T07:41:29;28.40;34.10
12156;DHT22;6141;49.092;8.516;2023-08-21T07:43:57;28.50;34.10
12156;DHT22;6141;49.092;8.516;2023-08-21T07:46:25;28.70;33.70
12156;DHT22;6141;49.092;8.516;2023-08-21T07:48:53;28.80;34.10
12156;DHT22;6141;49.092;8.516;2023-08-21T07:51:22;29.00;32.60
12156;DHT22;6141;49.092;8.516;2023-08-21T07:53:52;28.90;32.70
12156;DHT22;6141;49.092;8.516;2023-08-21T07:56:20;29.00;32.90
12156;DHT22;6141;49.092;8.516;2023-08-21T07:58:48;29.10;32.00
12156;DHT22;6141;49.092;8.516;2023-08-21T08:01:16;29.20;31.00
12156;DHT22;6141;49.092;8.516;2023-08-21T08:03:46;29.50;30.40
12156;DHT22;6141;49.092;8.516;2023-08-21T08:06:18;29.60;30.10
12156;DHT22;6141;49.092;8.516;2023-08-21T08:08:46;29.40;29.60
12156;DHT22;6141;49.092;8.516;2023-08-21T08:11:16;29.30;31.90
12156;DHT22;6141;49.092;8.516;2023-08-21T08:13:44;29.30;30.70
12156;DHT22;6141;49.092;8.516;2023-08-21T08:16:12;29.40;30.80
12156;DHT22;6141;49.092;8.516;2023-08-21T08:18:40;29.50;29.70
12156;DHT22;6141;49.092;8.516;2023-08-21T08:21:08;29.50;30.90
12156;DHT22;6141;49.092;8.516;2023-08-21T08:23:37;29.70;29.80
12156;DHT22;6141;49.092;8.516;2023-08-21T08:26:05;29.80;28.90
12156;DHT22;6141;49.092;8.516;2023-08-21T08:28:36;30.00;27.80
12156;DHT22;6141;49.092;8.516;2023-08-21T08:31:05;29.90;28.60
12156;DHT22;6141;49.092;8.516;2023-08-21T08:33:34;29.90;29.10
12156;DHT22;6141;49.092;8.516;2023-08-21T08:36:03;30.00;28.40
12156;DHT22;6141;49.092;8.516;2023-08-21T08:38:31;30.20;27.20
12156;DHT22;6141;49.092;8.516;2023-08-21T08:41:02;30.40;26.00
12156;DHT22;6141;49.092;8.516;2023-08-21T08:43:31;30.30;26.00
12156;DHT22;6141;49.092;8.516;2023-08-21T08:46:01;30.10;27.10
12156;DHT22;6141;49.092;8.516;2023-08-21T08:48:30;30.20;27.90
12156;DHT22;6141;49.092;8.516;2023-08-21T08:50:58;30.40;26.10
12156;DHT22;6141;49.092;8.516;2023-08-21T08:53:27;30.40;26.50
12156;DHT22;6141;49.092;8.516;2023-08-21T08:55:57;30.70;24.40
12156;DHT22;6141;49.092;8.516;2023-08-21T08:58:25;30.80;25.40
12156;DHT22;6141;49.092;8.516;2023-08-21T09:00:54;30.70;23.50
12156;DHT22;6141;49.092;8.516;2023-08-21T09:03:23;30.60;26.10
12156;DHT22;6141;49.092;8.516;2023-08-21T09:05:51;30.90;26.30
12156;DHT22;6141;49.092;8.516;2023-08-21T09:08:19;31.00;23.90
12156;DHT22;6141;49.092;8.516;2023-08-21T09:10:47;30.50;24.40
12156;DHT22;6141;49.092;8.516;2023-08-21T09:13:17;29.90;29.50
12156;DHT22;6141;49.092;8.516;2023-08-21T09:15:46;30.20;28.30
12156;DHT22;6141;49.092;8.516;2023-08-21T09:18:15;30.70;28.80
12156;DHT22;6141;49.092;8.516;2023-08-21T09:20:45;31.00;26.10
12156;DHT22;6141;49.092;8.516;2023-08-21T09:23:15;31.10;24.70
12156;DHT22;6141;49.092;8.516;2023-08-21T09:25:45;31.30;25.60
12156;DHT22;6141;49.092;8.516;2023-08-21T09:28:18;31.60;25.40
12156;DHT22;6141;49.092;8.516;2023-08-21T09:30:47;31.80;22.30
12156;DHT22;6141;49.092;8.516;2023-08-21T09:33:20;31.80;23.30
12156;DHT22;6141;49.092;8.516;2023-08-21T09:35:52;32.00;23.40
12156;DHT22;6141;49.092;8.516;2023-08-21T09:38:21;32.20;24.20
12156;DHT22;6141;49.092;8.516;2023-08-21T09:40:53;32.30;21.80
12156;DHT22;6141;49.092;8.516;2023-08-21T09:43:23;32.30;24.00
12156;DHT22;6141;49.092;8.516;2023-08-21T09:45:54;32.10;23.60
12156;DHT22;6141;49.092;8.516;2023-08-21T09:48:24;31.80;23.70
12156;DHT22;6141;49.092;8.516;2023-08-21T09:50:55;31.30;23.00
12156;DHT22;6141;49.092;8.516;2023-08-21T09:53:25;31.10;24.10
12156;DHT22;6141;49.092;8.516;2023-08-21T09:55:54;31.50;24.60
12156;DHT22;6141;49.092;8.516;2023-08-21T09:58:23;31.80;23.30
12156;DHT22;6141;49.092;8.516;2023-08-21T10:00:52;32.20;23.30
12156;DHT22;6141;49.092;8.516;2023-08-21T10:03:24;32.20;20.60
12156;DHT22;6141;49.092;8.516;2023-08-21T10:05:58;32.00;24.30
12156;DHT22;6141;49.092;8.516;2023-08-21T10:08:27;32.30;22.10
12156;DHT22;6141;49.092;8.516;2023-08-21T10:10:56;32.60;20.80
12156;DHT22;6141;49.092;8.516;2023-08-21T10:13:29;32.50;20.50
12156;DHT22;6141;49.092;8.516;2023-08-21T10:15:57;32.50;20.40
12156;DHT22;6141;49.092;8.516;2023-08-21T10:18:30;32.50;21.90
12156;DHT22;6141;49.092;8.516;2023-08-21T10:21:12;32.50;21.90
12156;DHT22;6141;49.092;8.516;2023-08-21T10:23:43;32.60;21.90
12156;DHT22;6141;49.092;8.516;2023-08-21T10:26:13;32.90;22.10
12156;DHT22;6141;49.092;8.516;2023-08-21T10:28:43;33.20;20.10
12156;DHT22;6141;49.092;8.516;2023-08-21T10:31:29;33.30;17.50
12156;DHT22;6141;49.092;8.516;2023-08-21T10:33:59;33.30;17.40
12156;DHT22;6141;49.092;8.516;2023-08-21T10:37:05;33.50;18.60
12156;DHT22;6141;49.092;8.516;2023-08-21T10:39:34;33.10;16.70
12156;DHT22;6141;49.092;8.516;2023-08-21T10:42:06;33.10;18.30
12156;DHT22;6141;49.092;8.516;2023-08-21T10:44:37;33.40;16.80
12156;DHT22;6141;49.092;8.516;2023-08-21T10:47:16;33.70;14.20
12156;DHT22;6141;49.092;8.516;2023-08-21T10:49:45;33.80;15.70
12156;DHT22;6141;49.092;8.516;2023-08-21T10:52:20;33.60;16.60
12156;DHT22;6141;49.092;8.516;2023-08-21T10:54:50;33.50;14.60
12156;DHT22;6141;49.092;8.516;2023-08-21T10:57:19;33.20;13.60
12156;DHT22;6141;49.092;8.516;2023-08-21T10:59:52;33.40;14.40
12156;DHT22;6141;49.092;8.516;2023-08-21T11:02:20;33.70;12.80
12156;DHT22;6141;49.092;8.516;2023-08-21T11:04:49;33.80;12.90
12156;DHT22;6141;49.092;8.516;2023-08-21T11:07:18;34.10;14.50
12156;DHT22;6141;49.092;8.516;2023-08-21T11:09:48;34.10;13.40
12156;DHT22;6141;49.092;8.516;2023-08-21T11:12:17;34.20;13.90
12156;DHT22;6141;49.092;8.516;2023-08-21T11:14:46;34.30;13.80
12156;DHT22;6141;49.092;8.516;2023-08-21T11:17:15;34.10;15.10
12156;DHT22;6141;49.092;8.516;2023-08-21T11:19:45;34.40;13.90
12156;DHT22;6141;49.092;8.516;2023-08-21T11:22:15;34.20;14.50
12156;DHT22;6141;49.092;8.516;2023-08-21T11:24:46;34.10;15.10
12156;DHT22;6141;49.092;8.516;2023-08-21T11:27:17;34.20;13.20
12156;DHT22;6141;49.092;8.516;2023-08-21T11:29:47;34.40;14.30
12156;DHT22;6141;49.092;8.516;2023-08-21T11:32:17;34.30;11.80
12156;DHT22;6141;49.092;8.516;2023-08-21T11:34:50;34.20;14.10
12156;DHT22;6141;49.092;8.516;2023-08-21T11:37:19;34.30;13.30
12156;DHT22;6141;49.092;8.516;2023-08-21T11:39:52;34.60;12.60
12156;DHT22;6141;49.092;8.516;2023-08-21T11:42:21;34.70;14.00
12156;DHT22;6141;49.092;8.516;2023-08-21T11:44:51;34.90;13.70
12156;DHT22;6141;49.092;8.516;2023-08-21T11:47:20;35.10;14.90
12156;DHT22;6141;49.092;8.516;2023-08-21T11:49:49;35.30;12.70
12156;DHT22;6141;49.092;8.516;2023-08-21T11:52:19;35.10;11.70
12156;DHT22;6141;49.092;8.516;2023-08-21T11:54:49;35.20;12.40
12156;DHT22;6141;49.092;8.516;2023-08-21T11:57:20;34.60;12.10
12156;DHT22;6141;49.092;8.516;2023-08-21T11:59:52;34.60;12.00
12156;DHT22;6141;49.092;8.516;2023-08-21T12:02:22;34.80;12.10
12156;DHT22;6141;49.092;8.516;2023-08-21T12:04:54;35.00;11.20
12156;DHT22;6141;49.092;8.516;2023-08-21T12:07:29;35.00;12.30
12156;DHT22;6141;49.092;8.516;2023-08-21T12:09:57;34.90;12.20
12156;DHT22;6141;49.092;8.516;2023-08-21T12:12:26;34.70;12.10
12156;DHT22;6141;49.092;8.516;2023-08-21T12:14:54;34.90;12.90
12156;DHT22;6141;49.092;8.516;2023-08-21T12:17:23;34.30;11.80
12156;DHT22;6141;49.092;8.516;2023-08-21T12:19:51;34.40;13.00
12156;DHT22;6141;49.092;8.516;2023-08-21T12:22:19;34.70;13.60
12156;DHT22;6141;49.092;8.516;2023-08-21T12:24:47;35.10;12.50
12156;DHT22;6141;49.092;8.516;2023-08-21T12:27:15;35.40;12.60
12156;DHT22;6141;49.092;8.516;2023-08-21T12:29:45;35.20;12.40
12156;DHT22;6141;49.092;8.516;2023-08-21T12:32:14;34.80;12.10
12156;DHT22;6141;49.092;8.516;2023-08-21T12:34:43;34.60;12.40
12156;DHT22;6141;49.092;8.516;2023-08-21T12:37:12;34.80;12.20
12156;DHT22;6141;49.092;8.516;2023-08-21T12:39:42;34.80;12.80
12156;DHT22;6141;49.092;8.516;2023-08-21T12:42:10;34.90;13.90
12156;DHT22;6141;49.092;8.516;2023-08-21T12:44:39;34.70;12.80
12156;DHT22;6141;49.092;8.516;2023-08-21T12:47:10;34.90;11.00
12156;DHT22;6141;49.092;8.516;2023-08-21T12:49:39;34.70;12.60
12156;DHT22;6141;49.092;8.516;2023-08-21T12:52:07;34.80;12.10
12156;DHT22;6141;49.092;8.516;2023-08-21T12:54:36;34.70;12.10
12156;DHT22;6141;49.092;8.516;2023-08-21T12:57:05;34.60;12.70
12156;DHT22;6141;49.092;8.516;2023-08-21T12:59:34;34.60;14.30
12156;DHT22;6141;49.092;8.516;2023-08-21T13:02:03;34.90;12.20
12156;DHT22;6141;49.092;8.516;2023-08-21T13:04:33;35.10;13.80
12156;DHT22;6141;49.092;8.516;2023-08-21T13:07:01;35.30;12.50
12156;DHT22;6141;49.092;8.516;2023-08-21T13:09:30;35.30;12.50
12156;DHT22;6141;49.092;8.516;2023-08-21T13:11:58;35.40;13.60
12156;DHT22;6141;49.092;8.516;2023-08-21T13:14:26;35.50;12.60
12156;DHT22;6141;49.092;8.516;2023-08-21T13:16:58;35.40;11.30
12156;DHT22;6141;49.092;8.516;2023-08-21T13:19:26;35.40;11.70
12156;DHT22;6141;49.092;8.516;2023-08-21T13:21:55;35.30;12.50
12156;DHT22;6141;49.092;8.516;2023-08-21T13:24:23;35.40;13.60
12156;DHT22;6141;49.092;8.516;2023-08-21T13:26:52;35.70;11.70
12156;DHT22;6141;49.092;8.516;2023-08-21T13:29:20;35.90;11.60
12156;DHT22;6141;49.092;8.516;2023-08-21T13:31:49;36.00;12.90
12156;DHT22;6141;49.092;8.516;2023-08-21T13:34:17;36.10;12.30
12156;DHT22;6141;49.092;8.516;2023-08-21T13:36:45;36.20;11.70
12156;DHT22;6141;49.092;8.516;2023-08-21T13:39:15;36.40;11.30
12156;DHT22;6141;49.092;8.516;2023-08-21T13:41:43;36.30;11.00
12156;DHT22;6141;49.092;8.516;2023-08-21T13:44:11;36.20;12.60
12156;DHT22;6141;49.092;8.516;2023-08-21T13:46:40;36.10;12.90
12156;DHT22;6141;49.092;8.516;2023-08-21T13:49:09;36.10;11.50
12156;DHT22;6141;49.092;8.516;2023-08-21T13:51:37;36.20;11.50
12156;DHT22;6141;49.092;8.516;2023-08-21T13:54:05;36.10;12.80
12156;DHT22;6141;49.092;8.516;2023-08-21T13:56:34;36.10;9.90
12156;DHT22;6141;49.092;8.516;2023-08-21T13:59:02;36.10;10.00
12156;DHT22;6141;49.092;8.516;2023-08-21T14:01:31;36.20;11.30
12156;DHT22;6141;49.092;8.516;2023-08-21T14:03:59;36.20;11.60
12156;DHT22;6141;49.092;8.516;2023-08-21T14:06:27;36.20;13.00
12156;DHT22;6141;49.092;8.516;2023-08-21T14:08:56;35.70;12.10
12156;DHT22;6141;49.092;8.516;2023-08-21T14:11:24;35.70;12.70
12156;DHT22;6141;49.092;8.516;2023-08-21T14:13:53;35.40;12.70
12156;DHT22;6141;49.092;8.516;2023-08-21T14:16:21;35.00;14.50
12156;DHT22;6141;49.092;8.516;2023-08-21T14:18:49;34.70;16.60
12156;DHT22;6141;49.092;8.516;2023-08-21T14:21:17;34.60;17.50
12156;DHT22;6141;49.092;8.516;2023-08-21T14:23:46;34.50;12.60
12156;DHT22;6141;49.092;8.516;2023-08-21T14:26:14;34.60;15.10
12156;DHT22;6141;49.092;8.516;2023-08-21T14:28:42;34.70;15.30
12156;DHT22;6141;49.092;8.516;2023-08-21T14:31:18;35.10;12.30
12156;DHT22;6141;49.092;8.516;2023-08-21T14:33:46;35.30;12.50
12156;DHT22;6141;49.092;8.516;2023-08-21T14:36:14;35.60;12.60
12156;DHT22;6141;49.092;8.516;2023-08-21T14:38:43;35.70;12.40
12156;DHT22;6141;49.092;8.516;2023-08-21T14:41:11;35.80;12.70
12156;DHT22;6141;49.092;8.516;2023-08-21T14:43:40;35.90;9.30
12156;DHT22;6141;49.092;8.516;2023-08-21T14:46:08;36.10;10.20
12156;DHT22;6141;49.092;8.516;2023-08-21T14:48:38;36.10;9.00
12156;DHT22;6141;49.092;8.516;2023-08-21T14:51:06;36.00;10.40
12156;DHT22;6141;49.092;8.516;2023-08-21T14:53:35;35.90;10.50
12156;DHT22;6141;49.092;8.516;2023-08-21T14:56:04;35.70;10.70
12156;DHT22;6141;49.092;8.516;2023-08-21T14:58:32;35.70;10.00
12156;DHT22;6141;49.092;8.516;2023-08-21T15:01:00;35.80;8.50
12156;DHT22;6141;49.092;8.516;2023-08-21T15:03:29;35.70;10.20
12156;DHT22;6141;49.092;8.516;2023-08-21T15:05:58;35.70;10.50
12156;DHT22;6141;49.092;8.516;2023-08-21T15:08:27;35.60;9.60
12156;DHT22;6141;49.092;8.516;2023-08-21T15:10:55;35.80;11.00
12156;DHT22;6141;49.092;8.516;2023-08-21T15:13:23;36.00;9.50
12156;DHT22;6141;49.092;8.516;2023-08-21T15:15:51;35.60;9.30
12156;DHT22;6141;49.092;8.516;2023-08-21T15:18:22;35.60;12.70
12156;DHT22;6141;49.092;8.516;2023-08-21T15:20:50;35.10;11.20
12156;DHT22;6141;49.092;8.516;2023-08-21T15:23:21;35.00;12.20
12156;DHT22;6141;49.092;8.516;2023-08-21T15:25:50;35.00;13.00
12156;DHT22;6141;49.092;8.516;2023-08-21T15:28:18;35.00;11.50
12156;DHT22;6141;49.092;8.516;2023-08-21T15:30:46;35.10;12.10
12156;DHT22;6141;49.092;8.516;2023-08-21T15:33:14;35.20;10.20
12156;DHT22;6141;49.092;8.516;2023-08-21T15:35:43;35.20;10.90
12156;DHT22;6141;49.092;8.516;2023-08-21T15:38:11;35.30;12.50
12156;DHT22;6141;49.092;8.516;2023-08-21T15:40:40;35.10;9.90
12156;DHT22;6141;49.092;8.516;2023-08-21T15:43:11;35.10;10.40
12156;DHT22;6141;49.092;8.516;2023-08-21T15:45:39;35.30;10.10
12156;DHT22;6141;49.092;8.516;2023-08-21T15:48:07;35.20;11.00
12156;DHT22;6141;49.092;8.516;2023-08-21T15:50:35;35.30;12.50
12156;DHT22;6141;49.092;8.516;2023-08-21T15:53:03;35.40;12.50
12156;DHT22;6141;49.092;8.516;2023-08-21T15:55:32;35.40;12.50
12156;DHT22;6141;49.092;8.516;2023-08-21T15:58:01;35.40;12.70
12156;DHT22;6141;49.092;8.516;2023-08-21T16:00:29;35.60;10.80